PS38 weather

Public forecast

Using degrees Fahrenheit for public forecast. Weather courtesy of forecast.io.

Closest aviation weather report (METAR) to Bert's Airport

Closest report is Heritage Field, 9.2 nm (17.0 km) ESE. Retrieved 2020/08/11 13:11 UTC (8 minutes ago):

KPTW 111311Z AUTO VRB03KT 5SM BR OVC006 24/23 A3001 RMK AO2 CIG 004V011 T02440228

Closest aviation forecast (TAF) to Bert's Airport

Closest forecast is Reading Regional Carl A Spaatz Field, 11.4 nm (21.1 km) WNW. Retrieved 2020/08/11 12:36 UTC (43 minutes ago):

TAF KRDG 111133Z 1112/1212 19003KT P6SM SCT015 TEMPO 1112/1114 BKN015 FM111500 18005KT P6SM BKN200 FM111900 19006KT P6SM FEW050 FM120900 VRB03KT P6SM BKN060